Time;durP1;ratioP1;P1;durP2;ratioP2;P2;SDS_P1;SDS_P2;PMS_P1;PMS_P2;Temp;Humidity;BMP_temperature;BMP_pressure;BME280_temperature;BME280_humidity;BME280_pressure;Samples;Min_cycle;Max_cycle;Signal;HPM_P1;HPM_P2
2021/09/29 00:00:55;;;;;;;7.43;3.97;;;13.30;98.30;;;;;;5193969;22;20458;-80
2021/09/29 00:02:58;;;;;;;6.80;4.47;;;13.30;98.30;;;;;;5203373;22;20419;-81
2021/09/29 00:05:01;;;;;;;4.60;4.10;;;13.30;98.30;;;;;;5203116;22;20445;-80
2021/09/29 00:07:04;;;;;;;4.23;3.73;;;13.20;98.30;;;;;;5195117;22;20539;-80
2021/09/29 00:09:07;;;;;;;5.87;4.00;;;13.20;98.30;;;;;;5194575;22;20911;-81
2021/09/29 00:11:10;;;;;;;6.53;4.00;;;13.30;98.30;;;;;;5194986;22;20458;-80
2021/09/29 00:13:13;;;;;;;5.73;4.30;;;13.30;98.30;;;;;;5195805;22;20566;-80
2021/09/29 00:15:16;;;;;;;5.70;4.30;;;13.30;98.30;;;;;;5205017;22;20824;-80
2021/09/29 00:17:20;;;;;;;4.87;4.10;;;13.40;98.30;;;;;;5195294;22;20427;-81
2021/09/29 00:19:23;;;;;;;6.30;4.50;;;13.30;98.30;;;;;;5195926;22;20437;-80
2021/09/29 00:21:26;;;;;;;5.83;4.60;;;13.30;98.30;;;;;;5195594;22;20447;-80
2021/09/29 00:23:29;;;;;;;6.97;4.30;;;13.20;98.30;;;;;;5195770;22;20820;-80
2021/09/29 00:25:32;;;;;;;11.07;4.40;;;13.20;98.30;;;;;;5196063;22;20567;-80
2021/09/29 00:27:36;;;;;;;6.53;4.33;;;13.10;98.30;;;;;;5196079;22;20433;-81
2021/09/29 00:29:40;;;;;;;8.40;4.47;;;13.10;98.30;;;;;;5204351;22;20517;-79
2021/09/29 01:43:13;;;;;;;10.00;4.97;;;12.80;98.30;;;;;;5185698;22;20426;-84
2021/09/29 01:46:21;;;;;;;9.20;4.60;;;12.80;98.30;;;;;;5188308;22;20769;-83
2021/09/29 01:59:01;;;;;;;6.07;4.80;;;12.70;98.30;;;;;;5210023;22;20422;-85
2021/09/29 14:30:19;;;;;;;7.17;5.77;;;16.20;98.30;;;;;;5132288;23;21015;-80
2021/09/29 14:32:24;;;;;;;6.77;6.07;;;16.30;98.30;;;;;;5186092;22;20426;-80
2021/09/29 14:34:27;;;;;;;12.00;6.37;;;16.30;98.30;;;;;;5225947;22;20513;-80
2021/09/29 14:36:30;;;;;;;11.60;5.80;;;16.20;98.30;;;;;;5225194;22;20456;-81
2021/09/29 14:45:16;;;;;;;5.70;5.20;;;16.00;98.30;;;;;;5154450;23;20463;-80
2021/09/29 14:47:19;;;;;;;7.53;4.37;;;16.10;98.30;;;;;;5217399;22;20451;-81
2021/09/29 14:49:22;;;;;;;7.27;3.87;;;16.00;98.30;;;;;;5222432;22;20434;-81
2021/09/29 14:51:25;;;;;;;4.23;3.63;;;15.90;98.30;;;;;;5229119;22;20449;-80
2021/09/29 14:53:28;;;;;;;9.93;3.80;;;15.90;98.30;;;;;;5222016;22;21019;-80
2021/09/29 14:55:33;;;;;;;4.10;3.57;;;15.90;98.30;;;;;;5223218;22;20448;-80
2021/09/29 14:57:37;;;;;;;3.90;3.50;;;16.00;98.30;;;;;;5229786;22;21101;-83
2021/09/29 14:59:40;;;;;;;6.20;4.00;;;16.00;98.30;;;;;;5221609;22;20436;-83
2021/09/29 15:01:44;;;;;;;4.27;3.87;;;15.90;98.30;;;;;;5221865;22;20426;-82
2021/09/29 15:03:48;;;;;;;7.40;4.63;;;15.90;98.30;;;;;;5222105;22;20968;-82
2021/09/29 15:05:53;;;;;;;11.73;3.67;;;15.80;98.30;;;;;;5220899;22;20445;-82
2021/09/29 15:07:56;;;;;;;6.53;3.87;;;15.80;98.30;;;;;;5220501;22;20422;-83
2021/09/29 15:09:59;;;;;;;4.90;3.90;;;15.80;98.30;;;;;;5220752;22;20429;-83
2021/09/29 15:12:02;;;;;;;6.87;3.53;;;15.80;98.30;;;;;;5219430;22;20453;-84
2021/09/29 15:14:10;;;;;;;5.00;3.90;;;15.90;98.30;;;;;;5218679;22;20432;-84
2021/09/29 15:16:17;;;;;;;5.63;3.63;;;15.80;98.30;;;;;;5219421;22;20441;-84
2021/09/29 15:18:25;;;;;;;4.03;3.40;;;15.80;98.30;;;;;;5228098;22;20911;-84
2021/09/29 15:20:42;;;;;;;5.60;3.90;;;15.90;98.30;;;;;;5220663;22;20405;-84
2021/09/29 15:22:56;;;;;;;5.90;4.30;;;15.80;98.30;;;;;;5227964;22;20924;-82
2021/09/29 15:25:09;;;;;;;15.03;12.00;;;15.90;98.30;;;;;;5229268;22;20446;-81
2021/09/29 15:27:47;;;;;;;4.37;3.90;;;15.90;98.30;;;;;;5227774;22;20428;-81
2021/09/29 15:30:13;;;;;;;5.43;4.47;;;15.80;98.30;;;;;;5220054;22;20423;-82
2021/09/29 15:46:51;;;;;;;4.60;3.03;;;14.70;98.30;;;;;;5156741;22;20453;-82
2021/09/29 15:48:57;;;;;;;4.00;3.10;;;14.20;98.30;;;;;;5222410;22;20437;-82
2021/09/29 15:51:05;;;;;;;4.50;2.80;;;13.90;98.30;;;;;;5222158;22;20424;-82
2021/09/29 15:55:37;;;;;;;4.13;2.50;;;13.40;98.30;;;;;;5230022;22;20517;-82
2021/09/29 16:02:33;;;;;;;3.30;2.70;;;12.80;98.30;;;;;;5217957;22;20479;-82
2021/09/29 16:04:43;;;;;;;2.90;2.60;;;12.80;98.30;;;;;;5232697;22;20417;-82
2021/09/29 16:06:55;;;;;;;2.40;2.10;;;12.80;98.30;;;;;;5222749;22;20452;-82
2021/09/29 16:09:23;;;;;;;4.60;2.63;;;12.70;98.30;;;;;;5231194;22;20477;-82
2021/09/29 16:11:53;;;;;;;3.30;3.00;;;12.70;98.30;;;;;;5222610;22;20409;-82
2021/09/29 16:16:29;;;;;;;3.47;3.17;;;12.80;98.30;;;;;;5189175;22;20509;-83
2021/09/29 16:23:29;;;;;;;3.30;2.97;;;12.70;98.30;;;;;;5115913;23;20430;-82
2021/09/29 16:30:20;;;;;;;3.90;3.07;;;12.80;98.30;;;;;;5229852;22;20417;-83
2021/09/29 16:32:27;;;;;;;4.57;3.90;;;12.70;98.30;;;;;;5229914;22;20475;-82
2021/09/29 16:34:34;;;;;;;4.40;3.97;;;12.80;98.30;;;;;;5229093;22;20512;-82
2021/09/29 16:36:37;;;;;;;4.27;3.80;;;12.70;98.30;;;;;;5229312;22;20444;-83
2021/09/29 16:38:44;;;;;;;7.60;4.00;;;12.70;98.30;;;;;;5222540;22;20516;-82
2021/09/29 16:40:47;;;;;;;5.30;4.30;;;12.60;98.30;;;;;;5230955;22;20402;-83
2021/09/29 16:42:54;;;;;;;6.90;4.77;;;12.60;98.30;;;;;;5229892;22;20428;-82
2021/09/29 16:44:59;;;;;;;4.73;4.33;;;12.60;98.30;;;;;;5230055;22;20480;-82
2021/09/29 16:47:02;;;;;;;5.00;4.50;;;12.60;98.30;;;;;;5222144;22;20445;-82
2021/09/29 16:49:08;;;;;;;6.13;5.03;;;12.60;98.30;;;;;;5230720;22;20422;-82
2021/09/29 16:51:18;;;;;;;5.67;5.17;;;12.60;98.30;;;;;;5220564;22;20421;-81
2021/09/29 16:53:37;;;;;;;6.90;5.37;;;12.60;98.30;;;;;;5228477;22;20410;-82
2021/09/29 16:55:43;;;;;;;5.10;4.60;;;12.60;98.30;;;;;;5220791;22;20449;-82
2021/09/29 16:57:49;;;;;;;8.20;4.63;;;12.50;98.30;;;;;;5228966;22;20422;-82
2021/09/29 17:00:00;;;;;;;7.20;5.60;;;12.60;98.30;;;;;;5230964;22;20456;-83
2021/09/29 17:02:27;;;;;;;6.53;5.67;;;12.60;98.30;;;;;;5230816;22;20413;-82
2021/09/29 17:04:31;;;;;;;7.10;6.07;;;12.60;98.30;;;;;;5223154;22;20437;-82
2021/09/29 17:06:34;;;;;;;8.83;5.80;;;12.60;98.30;;;;;;5230757;22;20505;-82
2021/09/29 17:08:40;;;;;;;5.90;5.17;;;12.60;98.30;;;;;;5223299;22;20758;-83
2021/09/29 17:10:45;;;;;;;7.43;5.83;;;12.50;98.30;;;;;;5231722;22;20445;-83
2021/09/29 17:12:50;;;;;;;9.93;6.87;;;12.40;98.30;;;;;;5228782;22;20414;-82
2021/09/29 17:14:53;;;;;;;9.07;6.03;;;12.30;98.30;;;;;;5220844;22;20445;-83
2021/09/29 17:16:58;;;;;;;7.87;6.83;;;12.30;98.30;;;;;;5230329;22;20500;-83
2021/09/29 17:19:04;;;;;;;8.00;7.30;;;12.20;98.30;;;;;;5230193;22;20418;-83
2021/09/29 17:21:30;;;;;;;8.70;7.77;;;12.30;98.30;;;;;;5221974;22;20422;-82
2021/09/29 17:23:37;;;;;;;8.63;7.83;;;12.30;98.30;;;;;;5232495;22;20417;-81
2021/09/29 17:25:40;;;;;;;8.10;7.40;;;12.30;98.30;;;;;;5222797;22;20456;-81
2021/09/29 17:27:44;;;;;;;7.57;6.87;;;12.20;98.30;;;;;;5233931;22;20430;-81
2021/09/29 17:29:49;;;;;;;8.50;6.50;;;12.20;98.30;;;;;;5234731;22;20500;-81
2021/09/29 17:32:04;;;;;;;7.83;7.03;;;12.10;98.30;;;;;;5234122;22;20413;-81
2021/09/29 17:34:13;;;;;;;8.37;7.67;;;12.10;98.30;;;;;;5226990;22;20425;-81
2021/09/29 17:53:30;;;;;;;4.40;4.10;;;11.60;98.30;;;;;;5220495;22;20493;-81
2021/09/29 17:55:34;;;;;;;4.53;4.13;;;11.60;98.30;;;;;;5219565;22;20453;-82
2021/09/29 17:57:39;;;;;;;4.00;3.67;;;11.60;98.30;;;;;;5228102;22;20658;-81
2021/09/29 17:59:45;;;;;;;5.60;4.10;;;11.60;98.30;;;;;;5219120;22;20452;-82
2021/09/29 18:01:50;;;;;;;3.67;3.37;;;11.60;98.30;;;;;;5222459;22;20406;-81
2021/09/29 18:03:59;;;;;;;3.33;3.03;;;11.60;98.30;;;;;;5242597;22;20489;-83
2021/09/29 18:06:16;;;;;;;3.20;2.90;;;11.60;98.30;;;;;;5245900;22;20437;-80
2021/09/29 18:08:20;;;;;;;2.80;2.60;;;11.50;98.30;;;;;;5237501;22;20424;-81
2021/09/29 18:10:23;;;;;;;2.83;2.63;;;11.50;98.30;;;;;;5246040;22;20425;-81
2021/09/29 18:12:26;;;;;;;3.50;2.70;;;11.50;98.30;;;;;;5246783;22;20406;-81
2021/09/29 18:14:30;;;;;;;3.20;2.40;;;11.50;98.30;;;;;;5245380;22;20421;-81
2021/09/29 18:16:36;;;;;;;3.03;2.80;;;11.50;98.30;;;;;;5243565;22;20418;-81
2021/09/29 18:18:39;;;;;;;2.50;2.30;;;11.40;98.30;;;;;;5228964;22;20926;-81
2021/09/29 18:20:42;;;;;;;3.03;2.70;;;11.40;98.30;;;;;;5234447;22;20418;-81
2021/09/29 18:22:47;;;;;;;2.97;2.67;;;11.50;98.30;;;;;;5224380;22;20754;-81
2021/09/29 18:24:52;;;;;;;3.07;2.70;;;11.50;98.30;;;;;;5235893;22;20833;-82
2021/09/29 18:26:59;;;;;;;4.30;2.60;;;11.50;98.30;;;;;;5236438;22;20428;-81
2021/09/29 18:29:02;;;;;;;5.40;2.90;;;11.40;98.30;;;;;;5228311;22;20458;-81
2021/09/29 18:31:05;;;;;;;3.40;2.93;;;11.40;98.30;;;;;;5235984;22;20419;-81
2021/09/29 18:33:16;;;;;;;3.27;2.87;;;11.40;98.30;;;;;;5226057;22;20520;-81
2021/09/29 18:35:23;;;;;;;7.37;3.13;;;11.30;98.30;;;;;;5237048;22;20524;-81
2021/09/29 18:37:26;;;;;;;3.33;3.03;;;11.30;98.30;;;;;;5237992;22;20429;-81
2021/09/29 18:39:46;;;;;;;3.60;3.30;;;11.30;98.30;;;;;;5237969;22;20429;-82
2021/09/29 18:41:50;;;;;;;4.00;3.60;;;11.30;98.30;;;;;;5226997;22;20428;-81
2021/09/29 18:43:53;;;;;;;4.77;3.53;;;11.30;98.30;;;;;;5228111;22;20429;-81
2021/09/29 18:45:56;;;;;;;4.43;3.60;;;11.30;98.30;;;;;;5227303;22;20449;-81
2021/09/29 18:47:59;;;;;;;3.90;3.60;;;11.30;98.30;;;;;;5236923;22;21202;-82
2021/09/29 18:50:04;;;;;;;4.10;3.70;;;11.40;98.30;;;;;;5235764;22;20425;-82
2021/09/29 18:52:10;;;;;;;4.40;3.50;;;11.40;98.30;;;;;;5233368;22;20447;-82
2021/09/29 18:54:21;;;;;;;4.37;3.97;;;11.40;98.30;;;;;;5235393;22;20418;-81
2021/09/29 18:56:44;;;;;;;4.67;4.30;;;11.30;98.30;;;;;;5236347;22;20775;-82
2021/09/29 19:03:49;;;;;;;5.30;4.73;;;11.30;98.30;;;;;;5235326;22;20475;-81
2021/09/29 19:08:16;;;;;;;5.47;4.97;;;11.20;98.30;;;;;;5236371;22;20845;-81
2021/09/29 19:10:19;;;;;;;5.83;5.33;;;11.20;98.30;;;;;;5235614;22;20433;-81
2021/09/29 19:12:24;;;;;;;6.20;5.60;;;11.30;98.30;;;;;;5235734;22;20413;-81
2021/09/29 19:14:27;;;;;;;5.90;5.40;;;11.30;98.30;;;;;;5225179;22;20434;-81
2021/09/29 19:16:30;;;;;;;6.27;5.37;;;11.30;98.30;;;;;;5227519;22;20497;-81
2021/09/29 19:18:33;;;;;;;6.37;5.83;;;11.40;98.30;;;;;;5227188;22;20454;-81
2021/09/29 19:20:37;;;;;;;5.97;5.37;;;11.40;98.30;;;;;;5234561;22;20425;-81
2021/09/29 19:22:43;;;;;;;7.23;5.60;;;11.40;98.30;;;;;;5234881;22;20421;-81
2021/09/29 19:24:46;;;;;;;6.03;5.53;;;11.40;98.30;;;;;;5226399;22;20446;-82
2021/09/29 19:26:49;;;;;;;5.93;5.43;;;11.40;98.30;;;;;;5225314;22;20461;-81
2021/09/29 19:28:52;;;;;;;5.90;5.40;;;11.50;98.30;;;;;;5234049;22;21034;-81
2021/09/29 19:31:00;;;;;;;6.60;6.00;;;11.50;98.30;;;;;;5237163;22;20414;-81
2021/09/29 19:33:04;;;;;;;6.43;5.80;;;11.50;98.30;;;;;;5228213;22;20425;-81
2021/09/29 19:35:08;;;;;;;6.23;5.63;;;11.50;98.30;;;;;;5234871;22;20477;-81
2021/09/29 19:37:15;;;;;;;6.77;6.10;;;11.50;98.30;;;;;;5233419;22;20428;-81
2021/09/29 19:39:19;;;;;;;6.90;6.30;;;11.50;98.30;;;;;;5225636;22;20421;-81
2021/09/29 19:41:23;;;;;;;6.27;5.67;;;11.50;98.30;;;;;;5226100;22;20563;-81
2021/09/29 19:43:27;;;;;;;5.93;5.43;;;11.50;98.30;;;;;;5232065;22;20413;-81
2021/09/29 19:45:30;;;;;;;6.40;5.53;;;11.50;98.30;;;;;;5232164;22;20448;-81
2021/09/29 19:47:45;;;;;;;5.57;5.10;;;11.60;98.30;;;;;;5233778;22;20422;-81
2021/09/29 19:49:55;;;;;;;6.20;5.60;;;11.60;98.30;;;;;;5236017;22;20445;-81
2021/09/29 20:08:41;;;;;;;5.77;4.70;;;11.50;98.30;;;;;;5233403;22;20513;-81
2021/09/29 20:10:46;;;;;;;5.40;4.90;;;11.50;98.30;;;;;;5227999;22;20457;-81
2021/09/29 20:12:50;;;;;;;5.07;4.63;;;11.50;98.30;;;;;;5225916;22;20430;-81
2021/09/29 20:14:53;;;;;;;5.47;4.97;;;11.50;98.30;;;;;;5224532;22;20529;-81
2021/09/29 20:16:56;;;;;;;5.87;5.30;;;11.50;98.30;;;;;;5224695;22;20441;-81
2021/09/29 20:19:00;;;;;;;5.70;4.40;;;11.40;98.30;;;;;;5222643;22;20444;-81
2021/09/29 20:21:03;;;;;;;5.20;4.57;;;11.40;98.30;;;;;;5223096;22;20501;-81
2021/09/29 20:23:06;;;;;;;5.77;5.27;;;11.40;98.30;;;;;;5231893;22;20426;-81
2021/09/29 20:25:11;;;;;;;5.23;4.50;;;11.50;98.30;;;;;;5223265;22;20950;-82
2021/09/29 20:27:15;;;;;;;5.23;4.83;;;11.50;98.30;;;;;;5232182;22;20429;-81
2021/09/29 20:29:19;;;;;;;7.00;4.90;;;11.50;98.30;;;;;;5223524;22;20445;-82
2021/09/29 20:31:23;;;;;;;5.20;4.80;;;11.40;98.30;;;;;;5233317;22;20499;-82
2021/09/29 20:33:33;;;;;;;7.50;4.60;;;11.40;98.30;;;;;;5224078;22;20728;-82
2021/09/29 20:35:53;;;;;;;5.17;4.33;;;11.40;98.30;;;;;;5226993;22;20456;-81
2021/09/29 20:45:33;;;;;;;4.60;4.20;;;11.40;98.30;;;;;;5199454;22;20488;-81
2021/09/29 20:47:42;;;;;;;5.17;4.73;;;11.30;98.30;;;;;;5228602;22;20425;-82
2021/09/29 20:53:24;;;;;;;5.23;4.70;;;11.30;98.30;;;;;;5163803;22;20425;-82
2021/09/29 20:55:41;;;;;;;5.77;4.73;;;11.30;98.30;;;;;;5214841;22;20433;-81
2021/09/29 20:57:46;;;;;;;5.13;4.60;;;11.40;98.30;;;;;;5231962;22;20421;-82
2021/09/29 20:59:50;;;;;;;5.27;4.87;;;11.40;98.30;;;;;;5234623;22;20413;-82
2021/09/29 21:01:53;;;;;;;6.13;4.63;;;11.30;98.30;;;;;;5234074;22;21061;-81
2021/09/29 21:03:56;;;;;;;7.23;4.70;;;11.20;98.30;;;;;;5223531;22;20452;-81
2021/09/29 21:05:59;;;;;;;5.67;4.90;;;11.20;98.30;;;;;;5221273;22;20438;-81
2021/09/29 21:08:05;;;;;;;4.50;4.10;;;11.20;98.30;;;;;;5233181;22;20433;-81
2021/09/29 21:10:10;;;;;;;6.80;4.20;;;11.10;98.30;;;;;;5233969;22;20422;-81
2021/09/29 21:12:14;;;;;;;5.00;4.60;;;11.10;98.30;;;;;;5234800;22;20418;-81
2021/09/29 21:14:20;;;;;;;5.47;4.97;;;11.20;98.30;;;;;;5224160;22;21065;-80
2021/09/29 21:18:48;;;;;;;5.00;4.60;;;11.10;98.30;;;;;;5215798;22;20429;-81
2021/09/29 21:20:51;;;;;;;5.40;4.90;;;11.10;98.30;;;;;;5226168;22;20441;-80
2021/09/29 21:22:54;;;;;;;5.43;4.73;;;11.10;98.30;;;;;;5217244;22;20456;-81
2021/09/29 21:24:58;;;;;;;4.87;4.20;;;11.10;98.30;;;;;;5224852;22;20657;-81
2021/09/29 21:27:01;;;;;;;5.00;4.40;;;11.10;98.30;;;;;;5217891;22;20418;-80
